Napoleon, North Dakota
Current Conditions -  °F | °C
As of 4:15 PM on Thursday 23 Oct 2014 (Local Time) from K7L2 Reporting Station
Clear Clear  
Wind Chill: 70°   Ceiling: Unl
Heat Index: 70°   Visibility: 10mi
Dew Point: 32°   Wind: 10mph
Humidity: 25%   Direction: 210°SSW
Pressure: 29.84"   Gusts: NA
Location:  46.51°N, 99.77°W
Report Text: K7L2 232115Z AUTO 21009KT 10SM CLR 21/00 A2984 RMK AO2 PWINO PNO
Loading
Personal Weather Stations






























Interactive Weather Map
Tropical Storm Tracking
New forecast layout! Learn more

10-Day Weather Forecast

Advertisements
Track Severe Weather on mobile